Time;durP1;ratioP1;P1;durP2;ratioP2;P2;SDS_P1;SDS_P2;PMS_P1;PMS_P2;Temp;Humidity;BMP_temperature;BMP_pressure;BME280_temperature;BME280_humidity;BME280_pressure;Samples;Min_cycle;Max_cycle;Signal;HPM_P1;HPM_P2
2022/01/22 00:00:11;;;;;;;10.32;4.43;;;2.10;99.90;;;;;;5059911;28;20051;-77
2022/01/22 00:02:36;;;;;;;11.82;5.05;;;2.10;99.90;;;;;;5061900;28;20033;-77
2022/01/22 00:05:04;;;;;;;14.35;5.10;;;2.10;99.90;;;;;;5083964;28;20351;-77
2022/01/22 00:07:29;;;;;;;12.15;5.28;;;2.10;99.90;;;;;;5083874;28;21102;-77
2022/01/22 00:10:00;;;;;;;15.82;5.72;;;2.00;99.90;;;;;;5078770;28;20044;-78
2022/01/22 00:15:02;;;;;;;11.40;4.47;;;2.10;99.90;;;;;;5076186;28;20480;-81
2022/01/22 00:17:28;;;;;;;10.50;4.47;;;2.00;99.90;;;;;;5082608;28;20740;-81
2022/01/22 00:19:54;;;;;;;15.15;4.90;;;2.00;99.90;;;;;;5060840;28;20036;-81
2022/01/22 00:22:27;;;;;;;11.02;4.85;;;2.10;99.90;;;;;;5065274;28;20044;-80
2022/01/22 00:24:58;;;;;;;12.98;4.50;;;2.10;99.90;;;;;;5063634;28;20017;-81
2022/01/22 00:27:25;;;;;;;14.00;4.18;;;2.10;99.90;;;;;;5081485;28;20028;-80
2022/01/22 00:29:51;;;;;;;9.75;4.03;;;2.10;99.90;;;;;;5064050;28;20028;-81
2022/01/22 00:32:17;;;;;;;12.38;4.50;;;2.10;99.90;;;;;;5083981;28;20078;-80
2022/01/22 00:34:42;;;;;;;14.73;4.75;;;2.10;99.90;;;;;;5083045;28;20035;-81
2022/01/22 00:37:08;;;;;;;11.93;4.50;;;2.10;99.90;;;;;;5065143;28;20151;-80
2022/01/22 00:39:35;;;;;;;12.07;4.22;;;2.20;99.90;;;;;;5081868;28;20020;-80
2022/01/22 00:42:10;;;;;;;10.63;4.47;;;2.10;99.90;;;;;;5061550;28;20828;-80
2022/01/22 00:44:36;;;;;;;10.18;4.10;;;2.20;99.90;;;;;;5086819;28;20185;-81
2022/01/22 00:47:02;;;;;;;9.05;4.22;;;2.20;99.90;;;;;;5072143;28;20107;-81
2022/01/22 00:49:29;;;;;;;15.10;6.72;;;2.20;99.90;;;;;;5070500;28;20433;-81
2022/01/22 00:51:55;;;;;;;30.88;11.10;;;2.20;99.90;;;;;;5087346;28;20555;-81
2022/01/22 00:54:20;;;;;;;11.05;5.22;;;2.20;99.90;;;;;;5082760;28;20394;-81
2022/01/22 00:56:46;;;;;;;10.07;5.00;;;2.20;99.90;;;;;;5065418;28;20032;-81
2022/01/22 00:59:12;;;;;;;10.88;4.25;;;2.10;99.90;;;;;;5084850;28;20487;-81
2022/01/22 01:01:37;;;;;;;10.30;4.10;;;2.10;99.90;;;;;;5069084;28;20640;-81
2022/01/22 01:04:03;;;;;;;15.43;4.35;;;2.10;99.90;;;;;;5066895;28;20036;-81
2022/01/22 01:06:30;;;;;;;12.57;4.45;;;2.10;99.90;;;;;;5071140;28;20115;-82
2022/01/22 01:08:58;;;;;;;9.45;3.80;;;2.10;99.90;;;;;;5066887;28;20118;-81
2022/01/22 01:11:26;;;;;;;9.52;3.72;;;2.00;99.90;;;;;;5082946;28;20095;-80
2022/01/22 01:13:57;;;;;;;8.85;3.83;;;2.00;99.90;;;;;;5088417;28;20339;-80
2022/01/22 01:35:21;;;;;;;9.13;3.85;;;2.10;99.90;;;;;;5087464;28;20547;-80
2022/01/22 01:37:46;;;;;;;11.73;3.97;;;2.10;99.90;;;;;;5086816;28;20036;-80
2022/01/22 01:40:16;;;;;;;10.85;3.88;;;2.10;99.90;;;;;;5083831;28;20085;-81
2022/01/22 01:45:08;;;;;;;10.10;3.95;;;2.20;99.90;;;;;;5083213;28;21434;-80
2022/01/22 01:47:35;;;;;;;8.52;3.50;;;2.20;99.90;;;;;;5071684;28;20070;-81
2022/01/22 01:50:02;;;;;;;11.85;3.28;;;2.10;99.90;;;;;;5086180;28;20414;-80
2022/01/22 01:52:39;;;;;;;13.88;5.00;;;2.10;99.90;;;;;;5057890;28;20031;-81
2022/01/22 01:55:16;;;;;;;8.30;4.18;;;2.20;99.90;;;;;;5063619;28;20079;-80
2022/01/22 01:57:43;;;;;;;11.20;3.97;;;2.10;99.90;;;;;;5070533;28;20032;-81
2022/01/22 02:00:12;;;;;;;12.48;4.18;;;2.10;99.90;;;;;;5064567;28;20020;-81
2022/01/22 02:02:39;;;;;;;9.00;4.00;;;2.10;99.90;;;;;;5086168;28;20496;-80
2022/01/22 02:05:08;;;;;;;8.48;4.07;;;2.20;99.90;;;;;;5069081;28;20162;-79
2022/01/22 02:07:37;;;;;;;12.45;4.20;;;2.20;99.90;;;;;;5067785;28;20020;-80
2022/01/22 02:10:05;;;;;;;9.00;3.78;;;2.20;99.90;;;;;;5063712;28;20051;-80
2022/01/22 02:25:57;;;;;;;8.73;3.28;;;2.20;99.90;;;;;;5085864;28;19923;-80
2022/01/22 02:28:23;;;;;;;9.30;3.38;;;2.20;99.90;;;;;;5086013;28;20033;-79
2022/01/22 02:30:55;;;;;;;9.73;3.25;;;2.20;99.90;;;;;;5079636;28;20028;-79
2022/01/22 02:35:54;;;;;;;6.90;3.00;;;2.20;99.90;;;;;;5085828;28;20032;-81
2022/01/22 02:38:29;;;;;;;8.05;3.20;;;2.20;99.90;;;;;;5083955;28;20459;-80
2022/01/22 02:40:55;;;;;;;4.43;2.65;;;2.20;99.90;;;;;;5066368;28;20386;-80
2022/01/22 02:43:21;;;;;;;8.90;3.25;;;2.20;99.90;;;;;;5064624;28;20031;-80
2022/01/22 02:45:48;;;;;;;7.47;3.65;;;2.20;99.90;;;;;;5074262;28;20042;-80
2022/01/22 02:48:14;;;;;;;7.28;2.45;;;2.20;99.90;;;;;;5068107;28;20488;-81
2022/01/22 02:50:40;;;;;;;7.45;2.78;;;2.20;99.90;;;;;;5074585;28;20119;-80
2022/01/22 02:53:09;;;;;;;8.18;3.63;;;2.20;99.90;;;;;;5068968;28;20487;-80
2022/01/22 02:55:35;;;;;;;7.65;3.00;;;2.20;99.90;;;;;;5065994;28;20055;-80
2022/01/22 02:58:01;;;;;;;4.88;2.65;;;2.20;99.90;;;;;;5066950;28;20069;-82
2022/01/22 03:00:26;;;;;;;6.18;3.15;;;2.20;99.90;;;;;;5082992;28;20456;-81
2022/01/22 03:02:52;;;;;;;7.85;2.85;;;2.30;99.90;;;;;;5083879;28;20080;-80
2022/01/22 03:05:18;;;;;;;5.93;2.63;;;2.30;99.90;;;;;;5084464;28;20108;-81
2022/01/22 03:07:50;;;;;;;5.90;2.80;;;2.30;99.90;;;;;;5088120;28;20070;-81
2022/01/22 03:10:19;;;;;;;8.18;3.33;;;2.30;99.90;;;;;;5090346;28;20036;-81
2022/01/22 03:18:07;;;;;;;11.07;3.13;;;2.40;99.90;;;;;;5082424;28;20032;-81
2022/01/22 03:29:10;;;;;;;6.97;2.90;;;2.30;99.90;;;;;;5082177;28;20023;-81
2022/01/22 03:31:37;;;;;;;11.38;3.20;;;2.30;99.90;;;;;;5083864;28;20396;-81
2022/01/22 03:34:04;;;;;;;7.55;2.95;;;2.30;99.90;;;;;;5086375;28;20039;-81
2022/01/22 03:36:33;;;;;;;7.40;2.60;;;2.20;99.90;;;;;;5081511;28;20028;-80
2022/01/22 03:38:59;;;;;;;8.73;2.65;;;2.30;99.90;;;;;;5083589;28;20032;-80
2022/01/22 03:41:25;;;;;;;4.82;2.72;;;2.30;99.90;;;;;;5079391;28;20062;-80
2022/01/22 03:43:52;;;;;;;11.60;3.83;;;2.30;99.90;;;;;;5085671;28;20028;-80
2022/01/22 03:46:19;;;;;;;4.70;2.45;;;2.30;99.90;;;;;;5084470;28;20020;-82
2022/01/22 03:48:44;;;;;;;8.20;3.17;;;2.30;99.90;;;;;;5068149;28;20020;-81
2022/01/22 03:51:10;;;;;;;7.03;3.20;;;2.20;99.90;;;;;;5064856;28;20024;-82
2022/01/22 03:53:36;;;;;;;6.57;2.75;;;2.30;99.90;;;;;;5084582;28;20031;-81
2022/01/22 03:56:04;;;;;;;7.32;2.90;;;2.20;99.90;;;;;;5084992;28;20035;-81
2022/01/22 03:58:32;;;;;;;6.32;2.72;;;2.30;99.90;;;;;;5066029;28;20512;-82
2022/01/22 04:01:44;;;;;;;7.72;2.97;;;2.30;99.90;;;;;;5065261;28;20028;-82
2022/01/22 04:03:57;;;;;;;5.40;2.53;;;2.20;99.90;;;;;;5078739;28;20032;-81
2022/01/22 04:06:58;;;;;;;6.82;2.78;;;2.30;99.90;;;;;;5061180;28;20029;-82
2022/01/22 04:09:13;;;;;;;6.57;2.90;;;2.30;99.90;;;;;;5078066;28;20028;-81
2022/01/22 04:11:42;;;;;;;9.65;3.10;;;2.30;99.90;;;;;;5063088;28;20403;-81
2022/01/22 04:14:16;;;;;;;7.18;2.58;;;2.20;99.90;;;;;;5082041;28;20035;-82
2022/01/22 04:16:55;;;;;;;6.35;3.40;;;2.20;99.90;;;;;;5085456;28;20380;-82
2022/01/22 04:24:51;;;;;;;5.72;2.78;;;2.30;99.90;;;;;;5083250;28;21213;-81
2022/01/22 04:27:22;;;;;;;9.52;2.92;;;2.30;99.90;;;;;;5088045;28;20066;-81
2022/01/22 04:29:48;;;;;;;5.95;2.85;;;2.30;99.90;;;;;;5094527;28;20031;-82
2022/01/22 04:32:14;;;;;;;7.03;3.58;;;2.30;99.90;;;;;;5087617;28;20025;-80
2022/01/22 04:34:39;;;;;;;9.77;3.42;;;2.40;99.90;;;;;;5087371;28;20023;-81
2022/01/22 04:37:05;;;;;;;7.72;2.97;;;2.40;99.90;;;;;;5089446;28;20027;-80
2022/01/22 04:39:31;;;;;;;8.13;3.15;;;2.30;99.90;;;;;;5089016;28;20035;-81
2022/01/22 04:41:57;;;;;;;6.63;2.83;;;2.40;99.90;;;;;;5068326;28;20071;-80
2022/01/22 04:44:27;;;;;;;8.75;3.25;;;2.40;99.90;;;;;;5086760;28;20027;-80
2022/01/22 04:47:02;;;;;;;7.30;2.70;;;2.40;99.90;;;;;;5074698;28;20039;-80
2022/01/22 04:52:36;;;;;;;;;;;2.40;99.90;;;;;;5084513;28;20577;-81
2022/01/22 04:55:03;;;;;;;6.47;2.75;;;2.40;99.90;;;;;;5080731;28;19930;-81
2022/01/22 04:57:31;;;;;;;6.65;2.40;;;2.40;99.90;;;;;;5082742;28;20036;-80
2022/01/22 04:59:57;;;;;;;10.15;3.58;;;2.40;99.90;;;;;;5087679;28;20498;-80
2022/01/22 05:02:22;;;;;;;6.75;3.22;;;2.40;99.90;;;;;;5070728;28;20032;-81
2022/01/22 05:04:48;;;;;;;9.77;3.45;;;2.40;99.90;;;;;;5065440;28;20438;-81
2022/01/22 05:07:14;;;;;;;7.30;3.08;;;2.40;99.90;;;;;;5087568;28;20408;-81
2022/01/22 05:09:40;;;;;;;6.75;3.28;;;2.40;99.90;;;;;;5061541;28;20032;-80
2022/01/22 05:12:06;;;;;;;6.65;3.15;;;2.40;99.90;;;;;;5083339;28;20028;-81
2022/01/22 05:14:32;;;;;;;9.00;4.10;;;2.40;99.90;;;;;;5072247;28;20038;-81
2022/01/22 05:17:00;;;;;;;12.20;4.47;;;2.40;99.90;;;;;;5070156;28;20142;-81
2022/01/22 05:19:51;;;;;;;10.85;3.92;;;2.40;99.90;;;;;;5088476;28;20535;-81
2022/01/22 05:24:56;;;;;;;12.82;4.60;;;2.40;99.90;;;;;;5078422;28;20019;-81
2022/01/22 05:33:28;;;;;;;11.50;4.50;;;2.40;99.90;;;;;;5083141;28;20031;-81
2022/01/22 05:38:34;;;;;;;10.05;4.75;;;2.40;99.90;;;;;;5086833;28;20054;-81
2022/01/22 05:41:00;;;;;;;10.13;4.82;;;2.40;99.90;;;;;;5085751;28;20016;-82
2022/01/22 05:43:26;;;;;;;11.75;5.45;;;2.40;99.90;;;;;;5086983;28;20472;-81
2022/01/22 05:45:52;;;;;;;11.07;5.28;;;2.40;99.90;;;;;;5070225;28;20494;-81
2022/01/22 05:48:18;;;;;;;9.55;4.75;;;2.40;99.90;;;;;;5087806;28;20454;-81
2022/01/22 05:50:53;;;;;;;7.82;4.38;;;2.50;99.90;;;;;;5070314;28;20059;-82
2022/01/22 06:01:05;;;;;;;13.15;6.00;;;2.50;99.90;;;;;;5076623;28;20070;-82
2022/01/22 06:03:31;;;;;;;10.02;5.35;;;2.50;99.90;;;;;;5072943;28;20028;-81
2022/01/22 06:05:57;;;;;;;13.07;6.05;;;2.40;99.90;;;;;;5073068;28;20020;-82
2022/01/22 06:08:29;;;;;;;12.93;5.95;;;2.40;99.90;;;;;;5087244;28;20104;-81
2022/01/22 06:10:56;;;;;;;11.90;5.68;;;2.40;99.90;;;;;;5083875;28;20024;-81
2022/01/22 06:13:29;;;;;;;19.08;6.28;;;2.40;99.90;;;;;;5090524;28;20548;-81
2022/01/22 06:15:55;;;;;;;12.68;5.90;;;2.40;99.90;;;;;;5086021;28;20039;-81
2022/01/22 06:18:20;;;;;;;12.02;6.47;;;2.40;99.90;;;;;;5067823;28;20040;-81
2022/01/22 06:20:46;;;;;;;15.02;6.95;;;2.40;99.90;;;;;;5068176;28;20051;-82
2022/01/22 06:23:12;;;;;;;14.98;5.90;;;2.40;99.90;;;;;;5068208;28;20024;-79
2022/01/22 06:25:38;;;;;;;14.73;6.80;;;2.40;99.90;;;;;;5081357;28;20062;-78
2022/01/22 06:28:03;;;;;;;13.50;6.20;;;2.40;99.90;;;;;;5085519;28;20035;-78
2022/01/22 06:30:29;;;;;;;14.60;6.63;;;2.40;99.90;;;;;;5083034;28;20656;-78
2022/01/22 06:32:55;;;;;;;16.45;7.15;;;2.40;99.90;;;;;;5065545;28;20032;-77
2022/01/22 06:35:20;;;;;;;12.40;6.32;;;2.40;99.90;;;;;;5065273;28;20400;-77
2022/01/22 06:37:46;;;;;;;18.27;7.85;;;2.40;99.90;;;;;;5079003;28;20042;-80
2022/01/22 06:42:37;;;;;;;12.68;6.30;;;2.30;99.90;;;;;;5084106;28;20115;-78
2022/01/22 06:45:05;;;;;;;13.60;6.47;;;2.40;99.90;;;;;;5077850;28;20050;-79
2022/01/22 06:47:32;;;;;;;18.60;7.57;;;2.40;99.90;;;;;;5080754;28;20081;-77
2022/01/22 06:49:58;;;;;;;15.27;6.90;;;2.40;99.90;;;;;;5081429;28;20029;-79
2022/01/22 06:52:24;;;;;;;14.18;6.63;;;2.50;99.90;;;;;;5083156;28;20491;-78
2022/01/22 06:54:50;;;;;;;15.07;6.65;;;2.40;99.90;;;;;;5062652;28;20106;-77
2022/01/22 06:57:16;;;;;;;14.55;7.72;;;2.40;99.90;;;;;;5085416;28;20107;-77
2022/01/22 06:59:42;;;;;;;14.82;7.13;;;2.40;99.90;;;;;;5084498;28;20175;-77
2022/01/22 07:02:08;;;;;;;15.52;7.05;;;2.40;99.90;;;;;;5064590;28;20107;-77
2022/01/22 07:04:37;;;;;;;16.15;7.57;;;2.40;99.90;;;;;;5084215;28;20079;-77
2022/01/22 07:07:09;;;;;;;19.30;8.18;;;2.40;99.90;;;;;;5088127;28;20031;-80
2022/01/22 07:09:35;;;;;;;16.77;7.47;;;2.40;99.90;;;;;;5076750;28;20369;-78
2022/01/22 07:12:01;;;;;;;17.33;7.18;;;2.40;99.90;;;;;;5084011;28;20031;-78
2022/01/22 07:14:26;;;;;;;23.10;8.07;;;2.40;99.90;;;;;;5084353;28;20024;-78
2022/01/22 07:16:53;;;;;;;16.00;8.27;;;2.40;99.90;;;;;;5083093;28;20492;-78
2022/01/22 07:19:19;;;;;;;13.40;7.35;;;2.40;99.90;;;;;;5086551;28;20081;-79
2022/01/22 07:21:56;;;;;;;20.98;8.57;;;2.40;99.90;;;;;;5082160;28;20051;-78
2022/01/22 07:24:26;;;;;;;20.30;8.73;;;2.40;99.90;;;;;;5082463;28;20021;-78
2022/01/22 07:26:53;;;;;;;21.08;8.05;;;2.40;99.90;;;;;;5082080;28;20019;-79
2022/01/22 07:29:20;;;;;;;19.60;8.63;;;2.50;99.90;;;;;;5060617;28;20525;-79
2022/01/22 07:31:45;;;;;;;18.73;8.27;;;2.50;99.90;;;;;;5080736;28;20069;-79
2022/01/22 07:34:12;;;;;;;21.83;9.02;;;2.50;99.90;;;;;;5086286;28;20156;-78
2022/01/22 07:36:38;;;;;;;20.80;8.02;;;2.50;99.90;;;;;;5079370;28;20621;-78
2022/01/22 07:39:04;;;;;;;19.40;8.50;;;2.60;99.90;;;;;;5082378;28;20126;-78
2022/01/22 07:41:29;;;;;;;19.17;9.50;;;2.60;99.90;;;;;;5080447;28;20020;-78
2022/01/22 07:43:55;;;;;;;16.05;8.35;;;2.50;99.90;;;;;;5078767;28;20683;-78
2022/01/22 07:46:21;;;;;;;17.75;8.60;;;2.60;99.90;;;;;;5084017;28;20499;-79
2022/01/22 07:48:46;;;;;;;15.10;7.80;;;2.60;99.90;;;;;;5078915;28;20028;-78
2022/01/22 07:51:13;;;;;;;22.95;9.68;;;2.60;99.90;;;;;;5062409;28;20042;-79
2022/01/22 07:53:39;;;;;;;17.80;8.13;;;2.60;99.90;;;;;;5083434;28;20476;-77
2022/01/22 07:56:05;;;;;;;19.48;8.73;;;2.60;99.90;;;;;;5085023;28;20035;-79
2022/01/22 07:58:30;;;;;;;19.88;8.43;;;2.60;99.90;;;;;;5081086;28;20178;-77
2022/01/22 08:00:56;;;;;;;19.95;8.70;;;2.60;99.90;;;;;;5080157;28;20024;-78
2022/01/22 08:03:23;;;;;;;17.63;8.48;;;2.70;99.90;;;;;;5083427;28;20103;-78
2022/01/22 08:05:49;;;;;;;16.50;8.40;;;2.60;99.90;;;;;;5079027;28;20025;-76
2022/01/22 08:08:14;;;;;;;18.30;8.70;;;2.70;99.90;;;;;;5066240;28;20423;-77
2022/01/22 08:10:40;;;;;;;21.48;8.13;;;2.60;99.90;;;;;;5084195;28;20505;-78
2022/01/22 08:13:06;;;;;;;21.17;9.35;;;2.60;99.90;;;;;;5082536;28;20492;-78
2022/01/22 08:15:32;;;;;;;19.55;9.43;;;2.70;99.90;;;;;;5088144;28;20364;-77
2022/01/22 08:18:00;;;;;;;20.73;9.48;;;2.70;99.90;;;;;;5084444;28;20024;-79
2022/01/22 08:20:26;;;;;;;16.92;8.18;;;2.70;99.90;;;;;;5085873;28;20099;-78
2022/01/22 08:22:53;;;;;;;20.95;9.50;;;2.70;99.90;;;;;;5079730;28;20107;-78
2022/01/22 08:25:19;;;;;;;20.50;9.65;;;2.70;99.90;;;;;;5085058;28;20039;-78
2022/01/22 08:30:29;;;;;;;;;;;2.80;99.90;;;;;;5078920;28;20619;-78
2022/01/22 08:33:20;;;;;;;20.58;8.50;;;2.90;99.90;;;;;;5063019;28;20006;-78
2022/01/22 08:35:55;;;;;;;20.48;9.23;;;2.90;99.90;;;;;;5080449;28;20032;-79
2022/01/22 08:38:28;;;;;;;22.95;9.57;;;3.00;99.90;;;;;;5079632;28;20104;-79
2022/01/22 08:40:54;;;;;;;18.83;9.52;;;3.00;99.90;;;;;;5065918;28;20996;-78
2022/01/22 08:43:20;;;;;;;18.88;9.32;;;3.00;99.90;;;;;;5065452;28;20028;-78
2022/01/22 08:45:49;;;;;;;22.77;9.82;;;3.00;99.90;;;;;;5086498;28;20043;-78
2022/01/22 08:48:16;;;;;;;22.70;9.45;;;3.10;99.90;;;;;;5085383;28;20432;-78
2022/01/22 08:50:42;;;;;;;23.95;9.52;;;3.10;99.90;;;;;;5066275;28;20087;-78
2022/01/22 08:53:07;;;;;;;22.75;9.60;;;3.10;99.90;;;;;;5085822;28;21148;-78
2022/01/22 08:55:33;;;;;;;25.67;8.32;;;3.10;99.90;;;;;;5082450;28;20437;-78
2022/01/22 08:57:59;;;;;;;21.95;9.82;;;3.10;99.90;;;;;;5082110;28;20024;-78
2022/01/22 09:00:24;;;;;;;21.42;9.07;;;3.20;99.90;;;;;;5080785;28;20028;-78
2022/01/22 09:02:50;;;;;;;24.05;10.10;;;3.20;99.90;;;;;;5082120;28;20031;-78
2022/01/22 09:05:17;;;;;;;19.35;8.13;;;3.20;99.90;;;;;;5087981;28;20103;-78
2022/01/22 09:07:44;;;;;;;20.20;8.75;;;3.20;99.90;;;;;;5088075;28;20016;-78
2022/01/22 09:10:10;;;;;;;18.40;8.95;;;3.20;99.90;;;;;;5073342;28;20024;-79
2022/01/22 09:12:36;;;;;;;23.50;9.52;;;3.20;99.90;;;;;;5085570;28;20020;-78
2022/01/22 09:15:04;;;;;;;25.95;10.55;;;3.30;99.90;;;;;;5088202;28;20702;-78
2022/01/22 09:17:30;;;;;;;29.95;10.60;;;3.30;99.90;;;;;;5069727;28;20091;-78
2022/01/22 09:19:58;;;;;;;20.10;8.88;;;3.30;99.90;;;;;;5064984;28;20039;-78
2022/01/22 09:22:25;;;;;;;18.75;9.32;;;3.30;99.90;;;;;;5083630;28;20149;-78
2022/01/22 09:24:52;;;;;;;20.40;9.57;;;3.30;99.90;;;;;;5081376;28;20027;-79
2022/01/22 09:27:19;;;;;;;24.17;10.68;;;3.30;99.90;;;;;;5088526;28;20052;-79
2022/01/22 09:29:45;;;;;;;26.08;11.07;;;3.40;99.90;;;;;;5080728;28;20060;-78
2022/01/22 09:32:14;;;;;;;21.55;10.43;;;3.40;99.90;;;;;;5088636;28;20517;-78
2022/01/22 09:34:40;;;;;;;19.70;9.43;;;3.40;99.90;;;;;;5078773;28;20024;-78
2022/01/22 09:37:06;;;;;;;19.30;10.43;;;3.40;99.90;;;;;;5079630;28;20038;-78
2022/01/22 09:39:31;;;;;;;20.42;9.57;;;3.40;99.90;;;;;;5079097;28;20373;-78
2022/01/22 09:41:58;;;;;;;23.55;10.50;;;3.40;99.90;;;;;;5001664;28;20393;-78
2022/01/22 09:44:24;;;;;;;19.13;9.93;;;3.40;99.90;;;;;;5027460;28;20033;-78
2022/01/22 09:46:51;;;;;;;22.17;10.13;;;3.30;99.90;;;;;;5027456;28;20113;-78
2022/01/22 09:49:16;;;;;;;25.65;11.38;;;3.30;99.90;;;;;;5026553;28;20099;-78
2022/01/22 09:51:44;;;;;;;24.95;10.27;;;3.30;99.90;;;;;;5026673;28;20045;-78
2022/01/22 09:54:11;;;;;;;26.42;10.77;;;3.30;99.90;;;;;;5026638;28;20131;-78
2022/01/22 09:56:40;;;;;;;23.23;10.57;;;3.40;99.90;;;;;;5030166;28;20056;-78
2022/01/22 09:59:06;;;;;;;22.70;10.40;;;3.40;99.90;;;;;;5027534;28;20033;-78
2022/01/22 10:01:34;;;;;;;23.58;10.75;;;3.50;99.90;;;;;;5021042;28;20485;-78
2022/01/22 10:04:04;;;;;;;21.15;10.45;;;3.50;99.90;;;;;;5028707;28;20037;-79
2022/01/22 10:06:53;;;;;;;26.85;11.13;;;3.50;99.90;;;;;;5032041;28;20120;-78
2022/01/22 10:09:26;;;;;;;27.42;11.27;;;3.60;99.90;;;;;;4999469;28;20444;-79
2022/01/22 10:12:10;;;;;;;26.05;11.70;;;3.70;99.90;;;;;;5024158;28;20999;-79
2022/01/22 10:15:03;;;;;;;25.88;11.63;;;3.80;99.90;;;;;;5024340;28;20405;-79
2022/01/22 10:17:38;;;;;;;31.90;10.95;;;3.80;99.90;;;;;;5029063;28;20390;-78
2022/01/22 10:20:04;;;;;;;27.92;11.73;;;3.80;99.90;;;;;;5021453;28;20033;-78
2022/01/22 10:22:43;;;;;;;23.52;11.05;;;3.80;99.90;;;;;;5025110;28;20116;-78
2022/01/22 10:25:24;;;;;;;24.40;10.73;;;3.70;99.90;;;;;;5005628;28;20390;-78
2022/01/22 10:28:01;;;;;;;25.98;11.82;;;3.70;99.90;;;;;;5027297;28;20389;-79
2022/01/22 10:30:41;;;;;;;22.25;9.98;;;3.70;99.90;;;;;;5026021;28;20029;-79
2022/01/22 10:33:33;;;;;;;23.52;10.70;;;3.70;99.90;;;;;;5032642;28;20026;-78
2022/01/22 10:36:17;;;;;;;20.90;10.18;;;3.70;99.90;;;;;;5024668;28;20017;-79
2022/01/22 10:38:44;;;;;;;28.70;10.65;;;3.80;99.90;;;;;;5029118;28;20078;-78
2022/01/22 10:41:11;;;;;;;25.08;10.30;;;3.80;99.90;;;;;;5005352;28;20022;-78
2022/01/22 10:43:43;;;;;;;27.65;10.48;;;3.80;99.90;;;;;;5030349;28;20452;-78
2022/01/22 10:47:02;;;;;;;21.10;11.27;;;3.80;99.90;;;;;;5027001;28;20071;-79
2022/01/22 10:49:04;;;;;;;27.27;11.07;;;3.80;99.90;;;;;;5011906;28;20128;-77
2022/01/22 10:51:43;;;;;;;23.63;11.73;;;3.90;99.90;;;;;;5023964;28;20442;-78
2022/01/22 10:54:10;;;;;;;27.00;11.30;;;3.90;99.90;;;;;;5026376;28;20029;-76
2022/01/22 10:56:39;;;;;;;30.77;11.75;;;3.80;99.90;;;;;;5025057;28;20041;-77
2022/01/22 10:59:11;;;;;;;24.30;11.75;;;3.80;99.90;;;;;;5028928;28;20022;-78
2022/01/22 11:01:51;;;;;;;37.75;11.27;;;3.80;99.90;;;;;;5010088;28;20498;-76
2022/01/22 11:04:39;;;;;;;30.55;11.70;;;3.80;99.90;;;;;;5022762;28;20060;-78
2022/01/22 11:07:10;;;;;;;20.77;10.75;;;3.90;99.90;;;;;;5026475;28;20048;-80
2022/01/22 11:09:36;;;;;;;27.80;11.55;;;3.90;99.90;;;;;;5016690;28;20026;-79
2022/01/22 11:12:05;;;;;;;28.67;11.25;;;3.90;99.90;;;;;;5017157;28;20030;-78
2022/01/22 11:14:33;;;;;;;36.40;12.02;;;3.90;99.90;;;;;;5006806;28;20525;-78
2022/01/22 11:16:59;;;;;;;23.67;10.82;;;3.90;99.90;;;;;;5027550;28;20080;-78
2022/01/22 11:19:32;;;;;;;20.92;11.40;;;3.90;99.90;;;;;;5029926;28;20029;-78
2022/01/22 11:22:12;;;;;;;21.40;10.70;;;3.90;99.90;;;;;;5027165;28;20489;-79
2022/01/22 11:24:42;;;;;;;22.63;10.65;;;3.90;99.90;;;;;;5026882;28;20025;-78
2022/01/22 11:27:11;;;;;;;21.77;10.63;;;3.90;99.90;;;;;;5029308;28;20359;-79
2022/01/22 11:29:38;;;;;;;29.50;11.38;;;3.90;99.90;;;;;;5013725;28;20029;-78
2022/01/22 11:32:09;;;;;;;27.60;10.98;;;3.90;99.90;;;;;;5026719;28;20026;-79
2022/01/22 11:34:37;;;;;;;22.85;11.15;;;3.80;99.90;;;;;;5032840;28;20028;-80
2022/01/22 11:37:12;;;;;;;24.77;11.00;;;3.80;99.90;;;;;;5027115;28;20044;-79
2022/01/22 11:39:37;;;;;;;26.35;11.25;;;3.80;99.90;;;;;;5030815;28;20037;-79
2022/01/22 11:42:04;;;;;;;26.55;12.10;;;3.80;99.90;;;;;;5026149;28;20044;-79
2022/01/22 11:45:01;;;;;;;23.40;10.45;;;3.70;99.90;;;;;;5029030;28;20030;-79
2022/01/22 11:47:27;;;;;;;24.70;10.77;;;3.70;99.90;;;;;;5035341;28;20037;-78
2022/01/22 11:50:09;;;;;;;24.08;10.85;;;3.70;99.90;;;;;;5029909;28;20025;-80
2022/01/22 11:52:38;;;;;;;23.55;10.45;;;3.60;99.90;;;;;;5024908;28;20380;-81
2022/01/22 11:55:16;;;;;;;26.42;11.27;;;3.60;99.90;;;;;;5027527;28;20053;-80
2022/01/22 11:57:44;;;;;;;21.83;11.50;;;3.70;99.90;;;;;;5030583;28;20397;-81
2022/01/22 12:00:28;;;;;;;28.77;12.73;;;3.70;99.90;;;;;;5027557;28;20041;-81
2022/01/22 12:03:08;;;;;;;29.35;11.52;;;3.70;99.90;;;;;;5031123;28;20055;-80
2022/01/22 12:05:54;;;;;;;30.38;11.68;;;3.70;99.90;;;;;;5035714;28;20029;-80
2022/01/22 12:08:24;;;;;;;35.22;12.32;;;3.70;99.90;;;;;;5018889;28;20037;-83
2022/01/22 12:16:17;;;;;;;28.80;11.90;;;3.80;99.90;;;;;;5026354;28;20079;-80
2022/01/22 12:18:58;;;;;;;24.45;11.63;;;3.80;99.90;;;;;;5024270;28;20099;-80
2022/01/22 12:21:38;;;;;;;41.22;12.10;;;3.90;99.90;;;;;;5024308;28;20089;-82
2022/01/22 12:24:14;;;;;;;25.90;10.73;;;3.80;99.90;;;;;;5029119;28;20018;-83
2022/01/22 12:26:43;;;;;;;30.65;11.57;;;3.90;99.90;;;;;;5024350;28;20101;-81
2022/01/22 12:29:30;;;;;;;30.25;11.85;;;3.90;99.90;;;;;;5027760;28;20052;-82
2022/01/22 12:32:15;;;;;;;21.30;10.07;;;3.90;99.90;;;;;;5024068;28;20025;-82
2022/01/22 12:34:56;;;;;;;44.75;12.00;;;3.90;99.90;;;;;;5027949;28;20489;-82
2022/01/22 12:37:22;;;;;;;25.30;11.57;;;3.90;99.90;;;;;;5025670;28;20030;-82
2022/01/22 12:39:52;;;;;;;28.25;11.32;;;3.80;99.90;;;;;;5029701;28;20142;-82
2022/01/22 12:42:34;;;;;;;31.52;12.45;;;3.90;99.90;;;;;;5030424;28;20079;-81
2022/01/22 12:45:03;;;;;;;25.52;10.75;;;3.90;99.90;;;;;;5028210;28;20013;-81
2022/01/22 12:47:29;;;;;;;30.75;12.07;;;3.90;99.90;;;;;;5028142;28;20022;-79
2022/01/22 12:50:25;;;;;;;26.40;11.95;;;3.90;99.90;;;;;;5024374;28;20026;-80
2022/01/22 12:52:51;;;;;;;24.13;10.88;;;4.00;99.90;;;;;;5004569;28;20038;-80
2022/01/22 12:55:27;;;;;;;23.95;10.70;;;4.00;99.90;;;;;;5032854;28;20030;-80
2022/01/22 12:57:53;;;;;;;24.58;10.75;;;4.00;99.90;;;;;;5030894;28;20060;-79
2022/01/22 13:00:21;;;;;;;21.60;10.68;;;4.00;99.90;;;;;;5014941;28;20033;-79
2022/01/22 13:02:57;;;;;;;21.95;9.65;;;4.00;99.90;;;;;;5032498;28;20430;-79
2022/01/22 13:05:24;;;;;;;27.63;11.00;;;4.00;99.90;;;;;;5031055;28;20025;-79
2022/01/22 13:07:55;;;;;;;21.75;10.95;;;4.10;99.90;;;;;;5035016;28;20040;-79
2022/01/22 13:10:32;;;;;;;27.45;11.43;;;4.20;99.90;;;;;;5032500;28;20032;-79
2022/01/22 13:12:59;;;;;;;22.42;10.82;;;4.20;99.90;;;;;;5032675;28;20060;-79
2022/01/22 13:15:27;;;;;;;29.08;14.15;;;4.20;99.90;;;;;;5030072;28;20029;-79
2022/01/22 13:18:02;;;;;;;24.55;10.48;;;4.20;99.90;;;;;;5014230;28;20030;-79
2022/01/22 13:20:32;;;;;;;23.95;10.80;;;4.20;99.90;;;;;;5030956;28;20149;-79
2022/01/22 13:23:02;;;;;;;26.55;11.65;;;4.20;99.90;;;;;;5035684;28;20061;-79
2022/01/22 13:25:28;;;;;;;25.60;10.68;;;4.20;99.90;;;;;;5016540;28;20021;-79
2022/01/22 13:28:03;;;;;;;35.60;12.02;;;4.20;99.90;;;;;;5033763;28;20084;-79
2022/01/22 13:30:36;;;;;;;45.28;17.92;;;4.30;99.90;;;;;;5032104;28;20021;-79
2022/01/22 13:33:28;;;;;;;38.17;15.60;;;4.20;99.90;;;;;;5033063;28;20024;-79
2022/01/22 13:36:11;;;;;;;38.50;16.73;;;4.40;99.90;;;;;;5034335;28;20040;-78
2022/01/22 13:49:29;;;;;;;21.50;10.73;;;4.70;99.90;;;;;;5027967;28;20048;-79
2022/01/22 13:52:10;;;;;;;19.83;10.43;;;4.70;99.90;;;;;;5028992;28;20151;-78
2022/01/22 13:54:41;;;;;;;18.60;10.30;;;4.80;99.90;;;;;;5029934;28;20036;-79
2022/01/22 13:57:10;;;;;;;23.55;10.88;;;4.80;99.90;;;;;;5013949;28;20070;-79
2022/01/22 13:59:39;;;;;;;22.17;10.48;;;4.80;99.90;;;;;;5031788;28;20032;-78
2022/01/22 14:04:46;;;;;;;24.08;8.95;;;4.70;99.90;;;;;;5031148;28;20021;-78
2022/01/22 14:07:34;;;;;;;23.05;9.68;;;4.80;99.90;;;;;;5031635;28;20014;-78
2022/01/22 14:10:15;;;;;;;18.55;8.63;;;4.80;99.90;;;;;;5032098;28;20033;-79
2022/01/22 14:12:50;;;;;;;17.23;8.13;;;4.80;99.90;;;;;;5031682;28;20040;-79
2022/01/22 14:15:21;;;;;;;16.38;9.13;;;4.70;99.90;;;;;;5027731;28;20120;-80
2022/01/22 14:18:14;;;;;;;21.67;9.90;;;4.70;99.90;;;;;;5034996;28;20029;-80
2022/01/22 14:20:51;;;;;;;22.15;9.15;;;4.70;99.90;;;;;;5023708;28;20040;-79
2022/01/22 14:23:23;;;;;;;14.93;8.55;;;4.70;99.90;;;;;;5034556;28;20022;-79
2022/01/22 14:25:56;;;;;;;18.52;8.85;;;4.70;99.90;;;;;;5029343;28;20477;-79
2022/01/22 14:28:35;;;;;;;17.83;8.77;;;4.70;99.90;;;;;;5025984;28;20456;-79
2022/01/22 14:31:01;;;;;;;15.68;7.93;;;4.70;99.90;;;;;;5014218;28;20485;-79
2022/01/22 14:33:40;;;;;;;19.88;8.88;;;4.60;99.90;;;;;;5033310;28;20113;-78
2022/01/22 14:36:05;;;;;;;21.58;9.65;;;4.60;99.90;;;;;;5031840;28;20083;-79
2022/01/22 14:38:51;;;;;;;22.90;9.13;;;4.70;99.90;;;;;;5028833;28;20389;-79
2022/01/22 14:47:08;;;;;;;18.45;8.40;;;4.70;99.90;;;;;;5030062;28;20049;-79
2022/01/22 14:49:42;;;;;;;18.35;8.10;;;4.60;99.90;;;;;;5032569;28;20440;-79